sensor_id;sensor_type;location;lat;lon;timestamp;P1;durP1;ratioP1;P2;durP2;ratioP2
60665;SDS011;59128;44.642;21.188;2023-06-26T00:01:35;10.65;;;9.27;;
60665;SDS011;59128;44.642;21.188;2023-06-26T00:04:01;9.85;;;8.93;;
60665;SDS011;59128;44.642;21.188;2023-06-26T00:06:27;9.32;;;8.23;;
60665;SDS011;59128;44.642;21.188;2023-06-26T00:08:54;10.70;;;8.40;;
60665;SDS011;59128;44.642;21.188;2023-06-26T00:11:21;11.40;;;8.68;;
60665;SDS011;59128;44.642;21.188;2023-06-26T00:13:47;10.05;;;8.40;;
60665;SDS011;59128;44.642;21.188;2023-06-26T00:16:13;9.52;;;8.10;;
60665;SDS011;59128;44.642;21.188;2023-06-26T00:18:39;8.95;;;7.78;;
60665;SDS011;59128;44.642;21.188;2023-06-26T00:21:05;10.55;;;8.35;;
60665;SDS011;59128;44.642;21.188;2023-06-26T00:23:31;12.30;;;8.55;;
60665;SDS011;59128;44.642;21.188;2023-06-26T00:26:01;9.45;;;8.00;;
60665;SDS011;59128;44.642;21.188;2023-06-26T00:28:27;12.07;;;8.20;;
60665;SDS011;59128;44.642;21.188;2023-06-26T00:30:54;10.83;;;8.10;;
60665;SDS011;59128;44.642;21.188;2023-06-26T00:33:20;7.80;;;7.00;;
60665;SDS011;59128;44.642;21.188;2023-06-26T00:35:46;9.02;;;7.40;;
60665;SDS011;59128;44.642;21.188;2023-06-26T00:38:12;9.70;;;7.25;;
60665;SDS011;59128;44.642;21.188;2023-06-26T00:40:38;10.02;;;7.53;;
60665;SDS011;59128;44.642;21.188;2023-06-26T00:43:04;10.88;;;8.40;;
60665;SDS011;59128;44.642;21.188;2023-06-26T00:45:30;8.48;;;7.38;;
60665;SDS011;59128;44.642;21.188;2023-06-26T00:47:56;10.30;;;7.28;;
60665;SDS011;59128;44.642;21.188;2023-06-26T00:50:22;11.85;;;8.10;;
60665;SDS011;59128;44.642;21.188;2023-06-26T00:52:48;10.00;;;7.80;;
60665;SDS011;59128;44.642;21.188;2023-06-26T00:55:14;8.77;;;7.47;;
60665;SDS011;59128;44.642;21.188;2023-06-26T00:57:40;12.27;;;7.88;;
60665;SDS011;59128;44.642;21.188;2023-06-26T01:00:07;9.20;;;7.35;;
60665;SDS011;59128;44.642;21.188;2023-06-26T01:02:35;9.32;;;8.27;;
60665;SDS011;59128;44.642;21.188;2023-06-26T01:05:03;9.90;;;8.10;;
60665;SDS011;59128;44.642;21.188;2023-06-26T01:07:32;8.32;;;6.97;;
60665;SDS011;59128;44.642;21.188;2023-06-26T01:10:01;10.90;;;7.80;;
60665;SDS011;59128;44.642;21.188;2023-06-26T01:12:27;10.45;;;8.10;;
60665;SDS011;59128;44.642;21.188;2023-06-26T01:14:53;10.23;;;7.95;;
60665;SDS011;59128;44.642;21.188;2023-06-26T01:17:19;9.75;;;7.93;;
60665;SDS011;59128;44.642;21.188;2023-06-26T01:19:46;11.70;;;7.40;;
60665;SDS011;59128;44.642;21.188;2023-06-26T01:22:23;9.70;;;8.60;;
60665;SDS011;59128;44.642;21.188;2023-06-26T01:25:12;9.13;;;7.88;;
60665;SDS011;59128;44.642;21.188;2023-06-26T01:27:43;9.50;;;7.80;;
60665;SDS011;59128;44.642;21.188;2023-06-26T01:30:10;12.43;;;8.52;;
60665;SDS011;59128;44.642;21.188;2023-06-26T01:32:36;9.00;;;7.88;;
60665;SDS011;59128;44.642;21.188;2023-06-26T01:35:04;10.77;;;8.00;;
60665;SDS011;59128;44.642;21.188;2023-06-26T01:37:31;8.63;;;7.13;;
60665;SDS011;59128;44.642;21.188;2023-06-26T01:39:57;9.25;;;6.78;;
60665;SDS011;59128;44.642;21.188;2023-06-26T01:42:23;9.60;;;7.38;;
60665;SDS011;59128;44.642;21.188;2023-06-26T01:44:49;9.68;;;6.97;;
60665;SDS011;59128;44.642;21.188;2023-06-26T01:47:19;12.82;;;7.95;;
60665;SDS011;59128;44.642;21.188;2023-06-26T01:49:49;9.57;;;7.50;;
60665;SDS011;59128;44.642;21.188;2023-06-26T01:57:47;13.30;;;8.80;;
60665;SDS011;59128;44.642;21.188;2023-06-26T02:00:16;12.15;;;7.78;;
60665;SDS011;59128;44.642;21.188;2023-06-26T02:02:43;10.18;;;7.90;;
60665;SDS011;59128;44.642;21.188;2023-06-26T02:05:10;11.02;;;8.38;;
60665;SDS011;59128;44.642;21.188;2023-06-26T02:07:36;11.63;;;8.25;;
60665;SDS011;59128;44.642;21.188;2023-06-26T02:10:02;11.77;;;8.45;;
60665;SDS011;59128;44.642;21.188;2023-06-26T02:12:28;11.85;;;8.82;;
60665;SDS011;59128;44.642;21.188;2023-06-26T02:14:54;10.63;;;8.52;;
60665;SDS011;59128;44.642;21.188;2023-06-26T02:17:20;13.60;;;8.67;;
60665;SDS011;59128;44.642;21.188;2023-06-26T02:19:46;13.57;;;9.52;;
60665;SDS011;59128;44.642;21.188;2023-06-26T02:22:16;15.32;;;9.63;;
60665;SDS011;59128;44.642;21.188;2023-06-26T02:24:42;12.75;;;9.85;;
60665;SDS011;59128;44.642;21.188;2023-06-26T02:27:09;17.27;;;10.48;;
60665;SDS011;59128;44.642;21.188;2023-06-26T02:29:35;12.00;;;9.10;;
60665;SDS011;59128;44.642;21.188;2023-06-26T02:32:01;12.10;;;9.18;;
60665;SDS011;59128;44.642;21.188;2023-06-26T02:34:28;11.47;;;8.63;;
60665;SDS011;59128;44.642;21.188;2023-06-26T02:36:55;13.30;;;8.98;;
60665;SDS011;59128;44.642;21.188;2023-06-26T02:39:21;14.38;;;9.07;;
60665;SDS011;59128;44.642;21.188;2023-06-26T02:41:47;13.48;;;10.65;;
60665;SDS011;59128;44.642;21.188;2023-06-26T02:44:13;14.02;;;10.60;;
60665;SDS011;59128;44.642;21.188;2023-06-26T02:46:40;12.43;;;10.27;;
60665;SDS011;59128;44.642;21.188;2023-06-26T02:49:06;13.40;;;9.40;;
60665;SDS011;59128;44.642;21.188;2023-06-26T02:51:32;11.80;;;8.95;;
60665;SDS011;59128;44.642;21.188;2023-06-26T02:53:59;13.55;;;9.90;;
60665;SDS011;59128;44.642;21.188;2023-06-26T02:56:25;11.30;;;9.27;;
60665;SDS011;59128;44.642;21.188;2023-06-26T02:58:55;11.40;;;9.05;;
60665;SDS011;59128;44.642;21.188;2023-06-26T03:01:21;12.82;;;9.60;;
60665;SDS011;59128;44.642;21.188;2023-06-26T03:03:47;12.50;;;9.10;;
60665;SDS011;59128;44.642;21.188;2023-06-26T03:06:13;11.75;;;9.82;;
60665;SDS011;59128;44.642;21.188;2023-06-26T03:08:39;12.80;;;10.53;;
60665;SDS011;59128;44.642;21.188;2023-06-26T03:11:06;13.20;;;10.05;;
60665;SDS011;59128;44.642;21.188;2023-06-26T03:13:33;11.45;;;8.90;;
60665;SDS011;59128;44.642;21.188;2023-06-26T03:16:00;14.52;;;9.88;;
60665;SDS011;59128;44.642;21.188;2023-06-26T03:18:26;13.27;;;9.87;;
60665;SDS011;59128;44.642;21.188;2023-06-26T03:20:52;12.68;;;9.70;;
60665;SDS011;59128;44.642;21.188;2023-06-26T03:23:21;14.02;;;10.18;;
60665;SDS011;59128;44.642;21.188;2023-06-26T03:25:48;16.63;;;10.60;;
60665;SDS011;59128;44.642;21.188;2023-06-26T03:28:14;14.70;;;9.85;;
60665;SDS011;59128;44.642;21.188;2023-06-26T03:30:40;13.32;;;10.05;;
60665;SDS011;59128;44.642;21.188;2023-06-26T03:33:06;13.63;;;9.43;;
60665;SDS011;59128;44.642;21.188;2023-06-26T03:35:32;13.00;;;9.75;;
60665;SDS011;59128;44.642;21.188;2023-06-26T03:37:58;12.33;;;9.57;;
60665;SDS011;59128;44.642;21.188;2023-06-26T03:40:25;13.10;;;10.02;;
60665;SDS011;59128;44.642;21.188;2023-06-26T03:42:52;12.53;;;9.77;;
60665;SDS011;59128;44.642;21.188;2023-06-26T03:45:18;14.40;;;9.63;;
60665;SDS011;59128;44.642;21.188;2023-06-26T03:47:45;13.43;;;9.97;;
60665;SDS011;59128;44.642;21.188;2023-06-26T03:50:13;12.35;;;10.18;;
60665;SDS011;59128;44.642;21.188;2023-06-26T03:52:39;14.70;;;10.43;;
60665;SDS011;59128;44.642;21.188;2023-06-26T03:55:06;13.35;;;9.63;;
60665;SDS011;59128;44.642;21.188;2023-06-26T03:57:32;14.15;;;10.15;;
60665;SDS011;59128;44.642;21.188;2023-06-26T03:59:58;15.05;;;11.07;;
60665;SDS011;59128;44.642;21.188;2023-06-26T04:02:24;17.08;;;12.00;;
60665;SDS011;59128;44.642;21.188;2023-06-26T04:04:50;15.70;;;12.25;;
60665;SDS011;59128;44.642;21.188;2023-06-26T04:07:17;14.25;;;11.93;;
60665;SDS011;59128;44.642;21.188;2023-06-26T04:09:43;15.00;;;11.38;;
60665;SDS011;59128;44.642;21.188;2023-06-26T04:12:10;14.50;;;11.00;;
60665;SDS011;59128;44.642;21.188;2023-06-26T04:14:36;15.40;;;11.50;;
60665;SDS011;59128;44.642;21.188;2023-06-26T04:17:02;12.52;;;10.98;;
60665;SDS011;59128;44.642;21.188;2023-06-26T04:19:28;12.98;;;10.70;;
60665;SDS011;59128;44.642;21.188;2023-06-26T04:21:55;13.70;;;11.20;;
60665;SDS011;59128;44.642;21.188;2023-06-26T04:24:21;12.98;;;11.00;;
60665;SDS011;59128;44.642;21.188;2023-06-26T04:26:47;14.52;;;11.43;;
60665;SDS011;59128;44.642;21.188;2023-06-26T04:29:13;15.40;;;12.43;;
60665;SDS011;59128;44.642;21.188;2023-06-26T04:31:39;13.83;;;11.73;;
60665;SDS011;59128;44.642;21.188;2023-06-26T04:34:05;13.68;;;11.10;;
60665;SDS011;59128;44.642;21.188;2023-06-26T04:36:31;15.38;;;11.68;;
60665;SDS011;59128;44.642;21.188;2023-06-26T04:38:58;13.57;;;11.80;;
60665;SDS011;59128;44.642;21.188;2023-06-26T04:41:24;13.93;;;12.00;;
60665;SDS011;59128;44.642;21.188;2023-06-26T04:43:51;16.85;;;13.20;;
60665;SDS011;59128;44.642;21.188;2023-06-26T04:46:17;14.73;;;12.55;;
60665;SDS011;59128;44.642;21.188;2023-06-26T04:48:43;13.52;;;12.13;;
60665;SDS011;59128;44.642;21.188;2023-06-26T04:51:11;13.73;;;12.32;;
60665;SDS011;59128;44.642;21.188;2023-06-26T04:53:38;13.52;;;12.13;;
60665;SDS011;59128;44.642;21.188;2023-06-26T04:56:04;14.80;;;13.13;;
60665;SDS011;59128;44.642;21.188;2023-06-26T04:58:30;16.73;;;12.80;;
60665;SDS011;59128;44.642;21.188;2023-06-26T05:00:56;13.10;;;10.80;;
60665;SDS011;59128;44.642;21.188;2023-06-26T05:03:23;13.00;;;11.38;;
60665;SDS011;59128;44.642;21.188;2023-06-26T05:05:49;13.60;;;11.13;;
60665;SDS011;59128;44.642;21.188;2023-06-26T05:08:22;13.15;;;11.38;;
60665;SDS011;59128;44.642;21.188;2023-06-26T05:10:48;12.45;;;10.65;;
60665;SDS011;59128;44.642;21.188;2023-06-26T05:13:15;12.43;;;10.40;;
60665;SDS011;59128;44.642;21.188;2023-06-26T05:15:46;11.67;;;10.20;;
60665;SDS011;59128;44.642;21.188;2023-06-26T05:18:12;11.80;;;10.38;;
60665;SDS011;59128;44.642;21.188;2023-06-26T05:20:38;12.30;;;9.88;;
60665;SDS011;59128;44.642;21.188;2023-06-26T05:23:04;13.77;;;10.90;;
60665;SDS011;59128;44.642;21.188;2023-06-26T05:25:31;12.10;;;10.23;;
60665;SDS011;59128;44.642;21.188;2023-06-26T05:27:58;11.60;;;10.40;;
60665;SDS011;59128;44.642;21.188;2023-06-26T05:30:25;12.45;;;11.15;;
60665;SDS011;59128;44.642;21.188;2023-06-26T05:32:52;11.75;;;10.55;;
60665;SDS011;59128;44.642;21.188;2023-06-26T05:35:18;12.45;;;10.35;;
60665;SDS011;59128;44.642;21.188;2023-06-26T05:37:48;14.07;;;10.18;;
60665;SDS011;59128;44.642;21.188;2023-06-26T05:40:15;12.85;;;10.30;;
60665;SDS011;59128;44.642;21.188;2023-06-26T05:42:41;15.00;;;11.40;;
60665;SDS011;59128;44.642;21.188;2023-06-26T05:45:07;12.32;;;11.02;;
60665;SDS011;59128;44.642;21.188;2023-06-26T05:47:33;12.70;;;10.70;;
60665;SDS011;59128;44.642;21.188;2023-06-26T05:50:00;13.88;;;10.77;;
60665;SDS011;59128;44.642;21.188;2023-06-26T05:52:26;12.98;;;11.00;;
60665;SDS011;59128;44.642;21.188;2023-06-26T05:54:52;12.63;;;10.88;;
60665;SDS011;59128;44.642;21.188;2023-06-26T05:57:19;11.77;;;10.32;;
60665;SDS011;59128;44.642;21.188;2023-06-26T05:59:46;11.50;;;10.15;;
60665;SDS011;59128;44.642;21.188;2023-06-26T06:02:12;12.70;;;9.87;;
60665;SDS011;59128;44.642;21.188;2023-06-26T06:04:38;11.40;;;10.20;;
60665;SDS011;59128;44.642;21.188;2023-06-26T06:07:04;14.20;;;10.23;;
60665;SDS011;59128;44.642;21.188;2023-06-26T06:09:30;11.63;;;10.15;;
60665;SDS011;59128;44.642;21.188;2023-06-26T06:11:57;10.48;;;9.48;;
60665;SDS011;59128;44.642;21.188;2023-06-26T06:14:23;12.30;;;9.43;;
60665;SDS011;59128;44.642;21.188;2023-06-26T06:16:49;10.15;;;9.02;;
60665;SDS011;59128;44.642;21.188;2023-06-26T06:19:15;13.17;;;9.77;;
60665;SDS011;59128;44.642;21.188;2023-06-26T06:21:41;10.77;;;8.70;;
60665;SDS011;59128;44.642;21.188;2023-06-26T06:24:08;12.07;;;8.77;;
60665;SDS011;59128;44.642;21.188;2023-06-26T06:26:34;11.88;;;8.90;;
60665;SDS011;59128;44.642;21.188;2023-06-26T06:29:00;10.98;;;9.48;;
60665;SDS011;59128;44.642;21.188;2023-06-26T06:31:27;10.17;;;9.17;;
60665;SDS011;59128;44.642;21.188;2023-06-26T06:33:54;9.60;;;8.70;;
60665;SDS011;59128;44.642;21.188;2023-06-26T06:36:20;10.23;;;8.75;;
60665;SDS011;59128;44.642;21.188;2023-06-26T06:38:46;10.40;;;7.97;;
60665;SDS011;59128;44.642;21.188;2023-06-26T06:41:12;10.60;;;8.30;;
60665;SDS011;59128;44.642;21.188;2023-06-26T06:43:38;9.43;;;8.18;;
60665;SDS011;59128;44.642;21.188;2023-06-26T06:46:04;10.15;;;8.45;;
60665;SDS011;59128;44.642;21.188;2023-06-26T06:48:31;8.93;;;8.02;;
60665;SDS011;59128;44.642;21.188;2023-06-26T06:50:57;12.35;;;7.60;;
60665;SDS011;59128;44.642;21.188;2023-06-26T06:53:23;10.82;;;8.13;;
60665;SDS011;59128;44.642;21.188;2023-06-26T06:55:49;8.05;;;7.10;;
60665;SDS011;59128;44.642;21.188;2023-06-26T06:58:15;9.05;;;6.53;;
60665;SDS011;59128;44.642;21.188;2023-06-26T07:00:44;11.40;;;7.38;;
60665;SDS011;59128;44.642;21.188;2023-06-26T07:03:10;8.88;;;6.70;;
60665;SDS011;59128;44.642;21.188;2023-06-26T07:05:36;7.90;;;6.80;;
60665;SDS011;59128;44.642;21.188;2023-06-26T07:08:02;7.25;;;6.43;;
60665;SDS011;59128;44.642;21.188;2023-06-26T07:10:28;11.10;;;7.13;;
60665;SDS011;59128;44.642;21.188;2023-06-26T07:12:55;8.57;;;6.78;;
60665;SDS011;59128;44.642;21.188;2023-06-26T07:15:21;8.43;;;6.88;;
60665;SDS011;59128;44.642;21.188;2023-06-26T07:17:47;8.70;;;6.97;;
60665;SDS011;59128;44.642;21.188;2023-06-26T07:20:13;7.72;;;6.68;;
60665;SDS011;59128;44.642;21.188;2023-06-26T07:22:41;8.45;;;7.55;;
60665;SDS011;59128;44.642;21.188;2023-06-26T07:25:07;7.43;;;6.68;;
60665;SDS011;59128;44.642;21.188;2023-06-26T07:27:40;7.32;;;6.53;;
60665;SDS011;59128;44.642;21.188;2023-06-26T07:30:06;9.07;;;7.07;;
60665;SDS011;59128;44.642;21.188;2023-06-26T07:32:35;9.40;;;6.93;;
60665;SDS011;59128;44.642;21.188;2023-06-26T07:35:02;7.95;;;6.55;;
60665;SDS011;59128;44.642;21.188;2023-06-26T07:37:28;7.57;;;6.85;;
60665;SDS011;59128;44.642;21.188;2023-06-26T07:39:54;8.98;;;8.07;;
60665;SDS011;59128;44.642;21.188;2023-06-26T07:42:20;8.30;;;6.82;;
60665;SDS011;59128;44.642;21.188;2023-06-26T07:44:46;11.63;;;6.35;;
60665;SDS011;59128;44.642;21.188;2023-06-26T07:47:12;8.73;;;6.88;;
60665;SDS011;59128;44.642;21.188;2023-06-26T07:49:39;6.18;;;5.55;;
60665;SDS011;59128;44.642;21.188;2023-06-26T07:52:05;7.38;;;6.60;;
60665;SDS011;59128;44.642;21.188;2023-06-26T07:54:31;8.43;;;6.47;;
60665;SDS011;59128;44.642;21.188;2023-06-26T07:57:03;8.23;;;6.00;;
60665;SDS011;59128;44.642;21.188;2023-06-26T07:59:31;6.95;;;6.35;;
60665;SDS011;59128;44.642;21.188;2023-06-26T08:01:58;7.38;;;5.85;;
60665;SDS011;59128;44.642;21.188;2023-06-26T08:04:25;7.18;;;5.20;;
60665;SDS011;59128;44.642;21.188;2023-06-26T08:06:52;6.15;;;5.55;;
60665;SDS011;59128;44.642;21.188;2023-06-26T08:09:19;5.53;;;5.03;;
60665;SDS011;59128;44.642;21.188;2023-06-26T08:11:45;5.20;;;4.80;;
60665;SDS011;59128;44.642;21.188;2023-06-26T08:14:11;6.35;;;4.82;;
60665;SDS011;59128;44.642;21.188;2023-06-26T08:16:38;5.45;;;4.95;;
60665;SDS011;59128;44.642;21.188;2023-06-26T08:19:04;6.65;;;4.80;;
60665;SDS011;59128;44.642;21.188;2023-06-26T08:21:30;5.85;;;4.68;;
60665;SDS011;59128;44.642;21.188;2023-06-26T08:23:57;5.95;;;4.60;;
60665;SDS011;59128;44.642;21.188;2023-06-26T08:26:23;4.75;;;4.32;;
60665;SDS011;59128;44.642;21.188;2023-06-26T08:28:49;6.20;;;4.68;;
60665;SDS011;59128;44.642;21.188;2023-06-26T08:31:16;4.68;;;3.95;;
60665;SDS011;59128;44.642;21.188;2023-06-26T08:33:42;4.95;;;4.07;;
60665;SDS011;59128;44.642;21.188;2023-06-26T08:36:08;4.53;;;4.13;;
60665;SDS011;59128;44.642;21.188;2023-06-26T08:38:34;4.97;;;4.50;;
60665;SDS011;59128;44.642;21.188;2023-06-26T08:41:00;8.80;;;5.10;;
60665;SDS011;59128;44.642;21.188;2023-06-26T08:43:26;4.70;;;4.20;;
60665;SDS011;59128;44.642;21.188;2023-06-26T08:45:53;4.55;;;4.15;;
60665;SDS011;59128;44.642;21.188;2023-06-26T08:48:20;4.93;;;4.35;;
60665;SDS011;59128;44.642;21.188;2023-06-26T08:50:49;4.70;;;4.30;;
60665;SDS011;59128;44.642;21.188;2023-06-26T08:55:53;5.28;;;4.55;;
60665;SDS011;59128;44.642;21.188;2023-06-26T08:58:20;4.40;;;4.10;;
60665;SDS011;59128;44.642;21.188;2023-06-26T09:00:46;4.90;;;4.40;;
60665;SDS011;59128;44.642;21.188;2023-06-26T09:03:12;4.63;;;4.22;;
60665;SDS011;59128;44.642;21.188;2023-06-26T09:05:38;7.15;;;4.30;;
60665;SDS011;59128;44.642;21.188;2023-06-26T09:08:05;6.30;;;4.57;;
60665;SDS011;59128;44.642;21.188;2023-06-26T09:10:31;4.78;;;4.38;;
60665;SDS011;59128;44.642;21.188;2023-06-26T09:12:57;4.88;;;4.47;;
60665;SDS011;59128;44.642;21.188;2023-06-26T09:15:23;4.50;;;4.10;;
60665;SDS011;59128;44.642;21.188;2023-06-26T09:17:50;5.00;;;4.25;;
60665;SDS011;59128;44.642;21.188;2023-06-26T09:20:16;6.57;;;4.97;;
60665;SDS011;59128;44.642;21.188;2023-06-26T09:22:43;5.68;;;5.18;;
60665;SDS011;59128;44.642;21.188;2023-06-26T09:25:09;7.60;;;4.53;;
60665;SDS011;59128;44.642;21.188;2023-06-26T09:27:35;5.97;;;4.57;;
60665;SDS011;59128;44.642;21.188;2023-06-26T09:30:02;6.70;;;4.70;;
60665;SDS011;59128;44.642;21.188;2023-06-26T09:32:28;4.80;;;4.28;;
60665;SDS011;59128;44.642;21.188;2023-06-26T09:34:54;10.52;;;5.13;;
60665;SDS011;59128;44.642;21.188;2023-06-26T09:37:21;5.38;;;3.88;;
60665;SDS011;59128;44.642;21.188;2023-06-26T09:39:47;5.43;;;4.50;;
60665;SDS011;59128;44.642;21.188;2023-06-26T09:42:14;5.57;;;4.18;;
60665;SDS011;59128;44.642;21.188;2023-06-26T09:44:44;6.55;;;4.55;;
60665;SDS011;59128;44.642;21.188;2023-06-26T09:47:10;5.90;;;4.13;;
60665;SDS011;59128;44.642;21.188;2023-06-26T09:49:36;8.27;;;4.90;;
60665;SDS011;59128;44.642;21.188;2023-06-26T09:52:06;5.05;;;4.55;;
60665;SDS011;59128;44.642;21.188;2023-06-26T09:54:33;5.68;;;4.25;;
60665;SDS011;59128;44.642;21.188;2023-06-26T09:57:10;5.22;;;4.10;;
60665;SDS011;59128;44.642;21.188;2023-06-26T09:59:36;4.85;;;4.13;;
60665;SDS011;59128;44.642;21.188;2023-06-26T11:21:29;4.13;;;3.80;;
60665;SDS011;59128;44.642;21.188;2023-06-26T11:23:55;4.63;;;3.33;;
60665;SDS011;59128;44.642;21.188;2023-06-26T11:26:25;5.45;;;3.85;;
60665;SDS011;59128;44.642;21.188;2023-06-26T11:28:53;5.35;;;3.78;;
60665;SDS011;59128;44.642;21.188;2023-06-26T11:31:33;4.82;;;3.83;;
60665;SDS011;59128;44.642;21.188;2023-06-26T11:34:00;4.28;;;3.90;;
60665;SDS011;59128;44.642;21.188;2023-06-26T11:36:28;3.88;;;3.45;;
60665;SDS011;59128;44.642;21.188;2023-06-26T11:41:21;6.18;;;3.97;;
60665;SDS011;59128;44.642;21.188;2023-06-26T11:43:47;5.35;;;3.65;;
60665;SDS011;59128;44.642;21.188;2023-06-26T11:46:15;5.00;;;3.80;;
60665;SDS011;59128;44.642;21.188;2023-06-26T11:48:42;4.90;;;4.40;;
60665;SDS011;59128;44.642;21.188;2023-06-26T11:51:08;4.90;;;4.47;;
60665;SDS011;59128;44.642;21.188;2023-06-26T11:53:39;4.68;;;4.13;;
60665;SDS011;59128;44.642;21.188;2023-06-26T11:56:12;4.07;;;3.67;;
60665;SDS011;59128;44.642;21.188;2023-06-26T12:01:26;3.90;;;3.60;;
60665;SDS011;59128;44.642;21.188;2023-06-26T12:03:54;5.38;;;3.83;;
60665;SDS011;59128;44.642;21.188;2023-06-26T12:06:20;4.95;;;4.38;;
60665;SDS011;59128;44.642;21.188;2023-06-26T12:08:46;4.68;;;3.45;;
60665;SDS011;59128;44.642;21.188;2023-06-26T12:11:12;4.65;;;4.10;;
60665;SDS011;59128;44.642;21.188;2023-06-26T12:13:39;4.05;;;3.75;;
60665;SDS011;59128;44.642;21.188;2023-06-26T12:16:05;5.53;;;3.95;;
60665;SDS011;59128;44.642;21.188;2023-06-26T12:18:34;4.90;;;3.88;;
60665;SDS011;59128;44.642;21.188;2023-06-26T12:21:01;5.45;;;3.75;;
60665;SDS011;59128;44.642;21.188;2023-06-26T12:23:33;5.15;;;4.07;;
60665;SDS011;59128;44.642;21.188;2023-06-26T12:26:20;5.82;;;3.47;;
60665;SDS011;59128;44.642;21.188;2023-06-26T12:28:46;4.68;;;3.20;;
60665;SDS011;59128;44.642;21.188;2023-06-26T12:31:16;4.25;;;3.83;;
60665;SDS011;59128;44.642;21.188;2023-06-26T12:33:43;5.85;;;3.88;;
60665;SDS011;59128;44.642;21.188;2023-06-26T12:36:12;4.03;;;3.72;;
60665;SDS011;59128;44.642;21.188;2023-06-26T12:38:39;4.47;;;3.80;;
60665;SDS011;59128;44.642;21.188;2023-06-26T12:41:11;4.85;;;3.90;;
60665;SDS011;59128;44.642;21.188;2023-06-26T12:43:38;4.05;;;3.67;;
60665;SDS011;59128;44.642;21.188;2023-06-26T12:46:05;3.92;;;3.55;;
60665;SDS011;59128;44.642;21.188;2023-06-26T12:51:10;5.20;;;3.78;;
60665;SDS011;59128;44.642;21.188;2023-06-26T12:53:36;3.70;;;3.35;;
60665;SDS011;59128;44.642;21.188;2023-06-26T12:56:04;4.68;;;3.80;;
60665;SDS011;59128;44.642;21.188;2023-06-26T12:58:31;4.65;;;3.75;;
60665;SDS011;59128;44.642;21.188;2023-06-26T13:00:57;4.20;;;3.80;;
60665;SDS011;59128;44.642;21.188;2023-06-26T13:03:23;4.13;;;3.45;;
60665;SDS011;59128;44.642;21.188;2023-06-26T13:05:49;4.32;;;3.47;;
60665;SDS011;59128;44.642;21.188;2023-06-26T13:08:16;4.15;;;3.75;;
60665;SDS011;59128;44.642;21.188;2023-06-26T13:10:44;4.18;;;3.58;;
60665;SDS011;59128;44.642;21.188;2023-06-26T13:13:11;3.95;;;3.60;;
60665;SDS011;59128;44.642;21.188;2023-06-26T13:15:37;4.43;;;3.50;;
60665;SDS011;59128;44.642;21.188;2023-06-26T13:18:03;3.97;;;3.65;;
60665;SDS011;59128;44.642;21.188;2023-06-26T13:20:29;4.00;;;3.45;;
60665;SDS011;59128;44.642;21.188;2023-06-26T13:22:55;4.07;;;3.33;;
60665;SDS011;59128;44.642;21.188;2023-06-26T13:25:21;4.40;;;3.97;;
60665;SDS011;59128;44.642;21.188;2023-06-26T13:27:47;3.80;;;3.50;;
60665;SDS011;59128;44.642;21.188;2023-06-26T13:30:14;4.78;;;3.83;;
60665;SDS011;59128;44.642;21.188;2023-06-26T13:32:41;3.47;;;3.15;;
60665;SDS011;59128;44.642;21.188;2023-06-26T13:35:07;4.18;;;3.50;;
60665;SDS011;59128;44.642;21.188;2023-06-26T13:37:34;4.13;;;3.33;;
60665;SDS011;59128;44.642;21.188;2023-06-26T13:40:02;4.13;;;3.72;;
60665;SDS011;59128;44.642;21.188;2023-06-26T13:42:28;4.78;;;3.40;;
60665;SDS011;59128;44.642;21.188;2023-06-26T13:44:54;3.88;;;3.42;;
60665;SDS011;59128;44.642;21.188;2023-06-26T13:47:20;3.67;;;3.38;;
60665;SDS011;59128;44.642;21.188;2023-06-26T13:49:47;3.63;;;3.33;;
60665;SDS011;59128;44.642;21.188;2023-06-26T13:52:13;4.63;;;3.55;;
60665;SDS011;59128;44.642;21.188;2023-06-26T13:54:39;6.60;;;3.97;;
60665;SDS011;59128;44.642;21.188;2023-06-26T13:57:06;3.78;;;3.40;;
60665;SDS011;59128;44.642;21.188;2023-06-26T13:59:32;4.15;;;3.67;;
60665;SDS011;59128;44.642;21.188;2023-06-26T14:01:59;4.15;;;3.60;;
60665;SDS011;59128;44.642;21.188;2023-06-26T14:04:25;3.67;;;3.38;;
60665;SDS011;59128;44.642;21.188;2023-06-26T14:06:52;5.50;;;4.03;;
60665;SDS011;59128;44.642;21.188;2023-06-26T14:09:18;9.15;;;4.43;;
60665;SDS011;59128;44.642;21.188;2023-06-26T14:11:44;5.63;;;4.07;;
60665;SDS011;59128;44.642;21.188;2023-06-26T14:14:10;4.90;;;3.95;;
60665;SDS011;59128;44.642;21.188;2023-06-26T14:16:36;4.05;;;3.65;;
60665;SDS011;59128;44.642;21.188;2023-06-26T14:19:05;4.15;;;3.65;;
60665;SDS011;59128;44.642;21.188;2023-06-26T14:21:31;4.15;;;3.80;;
60665;SDS011;59128;44.642;21.188;2023-06-26T14:23:58;5.57;;;4.60;;
60665;SDS011;59128;44.642;21.188;2023-06-26T14:26:24;4.18;;;3.47;;
60665;SDS011;59128;44.642;21.188;2023-06-26T14:28:50;3.83;;;3.20;;
60665;SDS011;59128;44.642;21.188;2023-06-26T14:31:16;5.22;;;3.35;;
60665;SDS011;59128;44.642;21.188;2023-06-26T14:33:42;4.22;;;3.63;;
60665;SDS011;59128;44.642;21.188;2023-06-26T14:36:09;3.97;;;3.67;;
60665;SDS011;59128;44.642;21.188;2023-06-26T14:38:35;5.60;;;4.32;;
60665;SDS011;59128;44.642;21.188;2023-06-26T14:41:01;3.90;;;3.45;;
60665;SDS011;59128;44.642;21.188;2023-06-26T14:43:27;6.22;;;4.63;;
60665;SDS011;59128;44.642;21.188;2023-06-26T14:45:53;5.95;;;5.45;;
60665;SDS011;59128;44.642;21.188;2023-06-26T14:48:19;4.93;;;4.53;;
60665;SDS011;59128;44.642;21.188;2023-06-26T14:50:45;4.80;;;4.40;;
60665;SDS011;59128;44.642;21.188;2023-06-26T14:53:11;4.82;;;3.78;;
60665;SDS011;59128;44.642;21.188;2023-06-26T14:55:37;5.60;;;3.63;;
60665;SDS011;59128;44.642;21.188;2023-06-26T14:58:03;4.72;;;3.97;;
60665;SDS011;59128;44.642;21.188;2023-06-26T15:00:29;6.20;;;3.60;;
60665;SDS011;59128;44.642;21.188;2023-06-26T15:02:56;4.45;;;3.63;;
60665;SDS011;59128;44.642;21.188;2023-06-26T15:05:23;3.97;;;3.58;;
60665;SDS011;59128;44.642;21.188;2023-06-26T15:07:49;4.43;;;3.28;;
60665;SDS011;59128;44.642;21.188;2023-06-26T15:10:15;5.15;;;3.80;;
60665;SDS011;59128;44.642;21.188;2023-06-26T15:12:42;3.70;;;3.35;;
60665;SDS011;59128;44.642;21.188;2023-06-26T15:15:08;4.53;;;3.92;;
60665;SDS011;59128;44.642;21.188;2023-06-26T15:17:34;4.55;;;3.83;;
60665;SDS011;59128;44.642;21.188;2023-06-26T15:20:01;4.20;;;3.80;;
60665;SDS011;59128;44.642;21.188;2023-06-26T15:22:27;5.45;;;3.50;;
60665;SDS011;59128;44.642;21.188;2023-06-26T15:24:53;4.05;;;3.55;;
60665;SDS011;59128;44.642;21.188;2023-06-26T15:27:19;4.43;;;3.58;;
60665;SDS011;59128;44.642;21.188;2023-06-26T15:29:45;5.22;;;3.80;;
60665;SDS011;59128;44.642;21.188;2023-06-26T15:32:11;7.30;;;4.15;;
60665;SDS011;59128;44.642;21.188;2023-06-26T15:34:37;4.20;;;3.80;;
60665;SDS011;59128;44.642;21.188;2023-06-26T15:37:03;6.50;;;4.28;;
60665;SDS011;59128;44.642;21.188;2023-06-26T15:39:30;4.43;;;3.60;;
60665;SDS011;59128;44.642;21.188;2023-06-26T15:41:56;3.97;;;3.58;;
60665;SDS011;59128;44.642;21.188;2023-06-26T15:44:22;4.47;;;3.38;;
60665;SDS011;59128;44.642;21.188;2023-06-26T15:46:48;4.55;;;3.70;;
60665;SDS011;59128;44.642;21.188;2023-06-26T15:49:14;4.45;;;3.65;;
60665;SDS011;59128;44.642;21.188;2023-06-26T15:51:40;3.97;;;3.47;;
60665;SDS011;59128;44.642;21.188;2023-06-26T15:54:07;4.10;;;3.70;;
60665;SDS011;59128;44.642;21.188;2023-06-26T15:56:33;4.88;;;3.60;;
60665;SDS011;59128;44.642;21.188;2023-06-26T15:58:59;4.80;;;4.28;;